sensor_id;sensor_type;location;lat;lon;timestamp;P1;durP1;ratioP1;P2;durP2;ratioP2
23490;SDS011;14683;50.038;8.078;2022-11-15T04:15:19;15.98;;;11.20;;
23490;SDS011;14683;50.038;8.078;2022-11-15T04:18:06;15.48;;;10.30;;
23490;SDS011;14683;50.038;8.078;2022-11-15T04:20:50;17.52;;;10.57;;
23490;SDS011;14683;50.038;8.078;2022-11-15T04:23:54;15.52;;;10.10;;
23490;SDS011;14683;50.038;8.078;2022-11-15T04:26:58;17.30;;;9.73;;
23490;SDS011;14683;50.038;8.078;2022-11-15T04:29:43;18.20;;;11.57;;
23490;SDS011;14683;50.038;8.078;2022-11-15T04:32:27;14.13;;;9.80;;
23490;SDS011;14683;50.038;8.078;2022-11-15T04:35:12;14.40;;;10.00;;
23490;SDS011;14683;50.038;8.078;2022-11-15T04:37:56;17.70;;;11.60;;
23490;SDS011;14683;50.038;8.078;2022-11-15T04:40:41;16.50;;;10.60;;
23490;SDS011;14683;50.038;8.078;2022-11-15T04:43:26;17.50;;;11.25;;
23490;SDS011;14683;50.038;8.078;2022-11-15T04:46:11;16.63;;;10.10;;
23490;SDS011;14683;50.038;8.078;2022-11-15T04:48:55;16.30;;;10.32;;
23490;SDS011;14683;50.038;8.078;2022-11-15T04:51:40;17.77;;;11.35;;
23490;SDS011;14683;50.038;8.078;2022-11-15T04:54:24;19.23;;;10.70;;
23490;SDS011;14683;50.038;8.078;2022-11-15T04:57:09;16.20;;;11.15;;
23490;SDS011;14683;50.038;8.078;2022-11-15T04:59:53;19.45;;;10.93;;
23490;SDS011;14683;50.038;8.078;2022-11-15T05:02:38;16.33;;;11.38;;
23490;SDS011;14683;50.038;8.078;2022-11-15T05:05:41;22.17;;;10.80;;
23490;SDS011;14683;50.038;8.078;2022-11-15T05:08:26;19.05;;;10.65;;
23490;SDS011;14683;50.038;8.078;2022-11-15T05:11:10;19.20;;;10.50;;
23490;SDS011;14683;50.038;8.078;2022-11-15T05:13:55;15.52;;;10.68;;
23490;SDS011;14683;50.038;8.078;2022-11-15T05:16:39;18.65;;;10.85;;
23490;SDS011;14683;50.038;8.078;2022-11-15T05:19:24;17.70;;;11.02;;
23490;SDS011;14683;50.038;8.078;2022-11-15T05:22:09;15.50;;;10.05;;
23490;SDS011;14683;50.038;8.078;2022-11-15T05:24:53;15.57;;;10.80;;
23490;SDS011;14683;50.038;8.078;2022-11-15T05:27:38;16.52;;;10.95;;
23490;SDS011;14683;50.038;8.078;2022-11-15T05:30:22;17.00;;;11.43;;
23490;SDS011;14683;50.038;8.078;2022-11-15T05:33:07;16.67;;;11.05;;
23490;SDS011;14683;50.038;8.078;2022-11-15T05:35:54;17.98;;;11.32;;
23490;SDS011;14683;50.038;8.078;2022-11-15T05:38:43;15.52;;;10.65;;
23490;SDS011;14683;50.038;8.078;2022-11-15T05:41:33;19.00;;;10.85;;
23490;SDS011;14683;50.038;8.078;2022-11-15T05:44:20;15.05;;;10.38;;
23490;SDS011;14683;50.038;8.078;2022-11-15T05:47:07;16.10;;;10.00;;
23490;SDS011;14683;50.038;8.078;2022-11-15T05:49:53;15.32;;;10.10;;
23490;SDS011;14683;50.038;8.078;2022-11-15T05:52:38;13.13;;;10.30;;
23490;SDS011;14683;50.038;8.078;2022-11-15T05:55:23;20.00;;;9.93;;
23490;SDS011;14683;50.038;8.078;2022-11-15T05:58:07;15.55;;;9.55;;
23490;SDS011;14683;50.038;8.078;2022-11-15T06:00:52;17.17;;;11.18;;
23490;SDS011;14683;50.038;8.078;2022-11-15T06:03:38;19.95;;;10.63;;
23490;SDS011;14683;50.038;8.078;2022-11-15T06:06:22;14.68;;;9.77;;
23490;SDS011;14683;50.038;8.078;2022-11-15T06:09:07;12.98;;;9.23;;
23490;SDS011;14683;50.038;8.078;2022-11-15T06:11:51;13.85;;;9.88;;
23490;SDS011;14683;50.038;8.078;2022-11-15T06:14:36;16.83;;;10.07;;
23490;SDS011;14683;50.038;8.078;2022-11-15T06:17:20;16.70;;;9.25;;
23490;SDS011;14683;50.038;8.078;2022-11-15T06:20:05;15.90;;;9.25;;
23490;SDS011;14683;50.038;8.078;2022-11-15T06:22:50;14.00;;;8.68;;
23490;SDS011;14683;50.038;8.078;2022-11-15T06:25:34;15.52;;;8.82;;
23490;SDS011;14683;50.038;8.078;2022-11-15T06:28:19;11.77;;;8.32;;
23490;SDS011;14683;50.038;8.078;2022-11-15T06:31:04;16.27;;;8.98;;
23490;SDS011;14683;50.038;8.078;2022-11-15T06:33:49;14.00;;;8.52;;
23490;SDS011;14683;50.038;8.078;2022-11-15T06:36:34;15.35;;;8.82;;
23490;SDS011;14683;50.038;8.078;2022-11-15T06:39:19;11.55;;;7.75;;
23490;SDS011;14683;50.038;8.078;2022-11-15T06:42:04;11.35;;;8.13;;
23490;SDS011;14683;50.038;8.078;2022-11-15T06:44:48;15.27;;;8.73;;
23490;SDS011;14683;50.038;8.078;2022-11-15T06:47:33;13.35;;;9.68;;
23490;SDS011;14683;50.038;8.078;2022-11-15T06:50:17;11.45;;;7.93;;
23490;SDS011;14683;50.038;8.078;2022-11-15T06:53:05;13.70;;;8.65;;
23490;SDS011;14683;50.038;8.078;2022-11-15T06:55:50;10.68;;;8.07;;
23490;SDS011;14683;50.038;8.078;2022-11-15T06:58:35;13.90;;;8.13;;
23490;SDS011;14683;50.038;8.078;2022-11-15T07:01:19;16.30;;;9.38;;
23490;SDS011;14683;50.038;8.078;2022-11-15T07:04:04;12.52;;;7.95;;
23490;SDS011;14683;50.038;8.078;2022-11-15T07:06:48;12.15;;;8.07;;
23490;SDS011;14683;50.038;8.078;2022-11-15T07:09:33;11.73;;;8.07;;
23490;SDS011;14683;50.038;8.078;2022-11-15T07:12:17;12.73;;;8.95;;
23490;SDS011;14683;50.038;8.078;2022-11-15T07:15:02;11.57;;;8.25;;
23490;SDS011;14683;50.038;8.078;2022-11-15T07:17:47;11.27;;;8.10;;
23490;SDS011;14683;50.038;8.078;2022-11-15T07:20:31;11.82;;;7.53;;
23490;SDS011;14683;50.038;8.078;2022-11-15T07:23:16;11.52;;;8.02;;
23490;SDS011;14683;50.038;8.078;2022-11-15T07:26:00;12.38;;;7.95;;
23490;SDS011;14683;50.038;8.078;2022-11-15T07:28:45;14.98;;;7.93;;
23490;SDS011;14683;50.038;8.078;2022-11-15T07:31:29;12.13;;;7.78;;
23490;SDS011;14683;50.038;8.078;2022-11-15T07:34:14;11.40;;;7.72;;
23490;SDS011;14683;50.038;8.078;2022-11-15T07:36:58;11.23;;;7.63;;
23490;SDS011;14683;50.038;8.078;2022-11-15T07:39:43;10.90;;;7.85;;
23490;SDS011;14683;50.038;8.078;2022-11-15T07:42:27;13.93;;;9.55;;
23490;SDS011;14683;50.038;8.078;2022-11-15T07:45:39;15.88;;;10.30;;
23490;SDS011;14683;50.038;8.078;2022-11-15T07:48:27;17.85;;;11.85;;
23490;SDS011;14683;50.038;8.078;2022-11-15T07:51:12;18.27;;;12.30;;
23490;SDS011;14683;50.038;8.078;2022-11-15T07:53:58;13.13;;;9.30;;
23490;SDS011;14683;50.038;8.078;2022-11-15T07:56:42;9.05;;;6.90;;
23490;SDS011;14683;50.038;8.078;2022-11-15T07:59:26;9.50;;;7.50;;
23490;SDS011;14683;50.038;8.078;2022-11-15T08:02:11;13.25;;;9.27;;
23490;SDS011;14683;50.038;8.078;2022-11-15T08:04:55;13.80;;;8.57;;
23490;SDS011;14683;50.038;8.078;2022-11-15T08:07:40;10.43;;;7.20;;
23490;SDS011;14683;50.038;8.078;2022-11-15T08:10:25;10.75;;;7.85;;
23490;SDS011;14683;50.038;8.078;2022-11-15T08:13:10;10.27;;;7.10;;
23490;SDS011;14683;50.038;8.078;2022-11-15T08:15:59;8.88;;;7.00;;
23490;SDS011;14683;50.038;8.078;2022-11-15T08:18:45;12.45;;;6.55;;
23490;SDS011;14683;50.038;8.078;2022-11-15T08:21:29;10.57;;;7.05;;
23490;SDS011;14683;50.038;8.078;2022-11-15T08:24:14;15.85;;;6.30;;
23490;SDS011;14683;50.038;8.078;2022-11-15T08:26:58;12.52;;;7.43;;
23490;SDS011;14683;50.038;8.078;2022-11-15T08:29:43;14.07;;;7.43;;
23490;SDS011;14683;50.038;8.078;2022-11-15T08:32:28;12.23;;;7.47;;
23490;SDS011;14683;50.038;8.078;2022-11-15T08:35:12;13.45;;;7.78;;
23490;SDS011;14683;50.038;8.078;2022-11-15T08:37:57;11.25;;;8.07;;
23490;SDS011;14683;50.038;8.078;2022-11-15T08:40:41;18.65;;;10.43;;
23490;SDS011;14683;50.038;8.078;2022-11-15T08:43:26;11.77;;;8.05;;
23490;SDS011;14683;50.038;8.078;2022-11-15T08:46:11;14.50;;;7.00;;
23490;SDS011;14683;50.038;8.078;2022-11-15T08:48:57;10.10;;;7.77;;
23490;SDS011;14683;50.038;8.078;2022-11-15T08:51:41;10.25;;;7.88;;
23490;SDS011;14683;50.038;8.078;2022-11-15T08:54:26;15.60;;;8.80;;
23490;SDS011;14683;50.038;8.078;2022-11-15T08:57:11;15.88;;;8.63;;
23490;SDS011;14683;50.038;8.078;2022-11-15T08:59:55;12.55;;;8.98;;
23490;SDS011;14683;50.038;8.078;2022-11-15T09:02:40;11.38;;;8.38;;
23490;SDS011;14683;50.038;8.078;2022-11-15T09:05:25;13.05;;;8.57;;
23490;SDS011;14683;50.038;8.078;2022-11-15T09:08:09;17.13;;;11.02;;
23490;SDS011;14683;50.038;8.078;2022-11-15T09:10:55;17.38;;;10.18;;
23490;SDS011;14683;50.038;8.078;2022-11-15T09:13:40;15.60;;;9.60;;
23490;SDS011;14683;50.038;8.078;2022-11-15T09:16:24;14.60;;;9.43;;
23490;SDS011;14683;50.038;8.078;2022-11-15T09:19:09;16.73;;;9.65;;
23490;SDS011;14683;50.038;8.078;2022-11-15T09:21:53;13.80;;;8.60;;
23490;SDS011;14683;50.038;8.078;2022-11-15T09:24:38;13.60;;;8.55;;
23490;SDS011;14683;50.038;8.078;2022-11-15T09:27:26;11.90;;;8.25;;
23490;SDS011;14683;50.038;8.078;2022-11-15T09:30:12;25.80;;;13.63;;
23490;SDS011;14683;50.038;8.078;2022-11-15T09:32:56;16.83;;;10.35;;
23490;SDS011;14683;50.038;8.078;2022-11-15T09:35:41;18.63;;;12.52;;
23490;SDS011;14683;50.038;8.078;2022-11-15T09:38:26;13.43;;;9.93;;
23490;SDS011;14683;50.038;8.078;2022-11-15T09:50:34;14.63;;;8.48;;
23490;SDS011;14683;50.038;8.078;2022-11-15T09:53:03;16.17;;;7.90;;
23490;SDS011;14683;50.038;8.078;2022-11-15T09:55:39;11.25;;;8.00;;
23490;SDS011;14683;50.038;8.078;2022-11-15T09:58:33;12.68;;;8.63;;
23490;SDS011;14683;50.038;8.078;2022-11-15T10:01:04;11.70;;;8.35;;
23490;SDS011;14683;50.038;8.078;2022-11-15T10:03:36;11.25;;;8.38;;
23490;SDS011;14683;50.038;8.078;2022-11-15T10:06:05;15.05;;;8.93;;
23490;SDS011;14683;50.038;8.078;2022-11-15T10:11:10;17.38;;;9.05;;
23490;SDS011;14683;50.038;8.078;2022-11-15T10:13:40;14.23;;;8.93;;
23490;SDS011;14683;50.038;8.078;2022-11-15T10:16:24;12.35;;;8.80;;
23490;SDS011;14683;50.038;8.078;2022-11-15T10:21:41;14.63;;;9.32;;
23490;SDS011;14683;50.038;8.078;2022-11-15T10:24:27;15.07;;;9.15;;
23490;SDS011;14683;50.038;8.078;2022-11-15T10:26:55;18.35;;;9.70;;
23490;SDS011;14683;50.038;8.078;2022-11-15T10:29:22;13.23;;;8.40;;
23490;SDS011;14683;50.038;8.078;2022-11-15T10:31:49;11.65;;;8.60;;
23490;SDS011;14683;50.038;8.078;2022-11-15T10:34:22;16.73;;;8.57;;
23490;SDS011;14683;50.038;8.078;2022-11-15T10:36:59;11.95;;;8.70;;
23490;SDS011;14683;50.038;8.078;2022-11-15T10:39:27;12.73;;;8.25;;
23490;SDS011;14683;50.038;8.078;2022-11-15T10:41:53;11.85;;;8.45;;
23490;SDS011;14683;50.038;8.078;2022-11-15T10:49:23;11.85;;;9.15;;
23490;SDS011;14683;50.038;8.078;2022-11-15T10:51:56;19.63;;;9.55;;
23490;SDS011;14683;50.038;8.078;2022-11-15T10:54:23;16.70;;;9.68;;
23490;SDS011;14683;50.038;8.078;2022-11-15T10:56:54;13.18;;;9.68;;
23490;SDS011;14683;50.038;8.078;2022-11-15T10:59:29;14.25;;;9.48;;
23490;SDS011;14683;50.038;8.078;2022-11-15T11:01:56;14.20;;;9.73;;
23490;SDS011;14683;50.038;8.078;2022-11-15T11:04:23;18.33;;;10.30;;
23490;SDS011;14683;50.038;8.078;2022-11-15T11:06:49;18.52;;;10.20;;
23490;SDS011;14683;50.038;8.078;2022-11-15T11:11:59;17.17;;;9.80;;
23490;SDS011;14683;50.038;8.078;2022-11-15T11:14:27;15.77;;;9.43;;
23490;SDS011;14683;50.038;8.078;2022-11-15T11:19:59;16.27;;;10.00;;
23490;SDS011;14683;50.038;8.078;2022-11-15T11:22:34;15.45;;;10.18;;
23490;SDS011;14683;50.038;8.078;2022-11-15T11:27:54;11.98;;;8.32;;
23490;SDS011;14683;50.038;8.078;2022-11-15T11:30:34;13.10;;;9.10;;
23490;SDS011;14683;50.038;8.078;2022-11-15T11:33:12;15.07;;;9.25;;
23490;SDS011;14683;50.038;8.078;2022-11-15T11:35:49;13.00;;;8.93;;
23490;SDS011;14683;50.038;8.078;2022-11-15T11:41:24;16.05;;;9.38;;
23490;SDS011;14683;50.038;8.078;2022-11-15T11:49:07;11.63;;;8.98;;
23490;SDS011;14683;50.038;8.078;2022-11-15T11:51:43;14.00;;;9.43;;
23490;SDS011;14683;50.038;8.078;2022-11-15T11:54:20;16.43;;;10.10;;
23490;SDS011;14683;50.038;8.078;2022-11-15T11:56:50;12.82;;;9.05;;
23490;SDS011;14683;50.038;8.078;2022-11-15T11:59:25;14.88;;;10.18;;
23490;SDS011;14683;50.038;8.078;2022-11-15T12:01:55;13.52;;;8.27;;
23490;SDS011;14683;50.038;8.078;2022-11-15T12:07:00;13.68;;;9.98;;
23490;SDS011;14683;50.038;8.078;2022-11-15T12:17:34;9.45;;;7.03;;
23490;SDS011;14683;50.038;8.078;2022-11-15T12:20:04;10.38;;;7.65;;
23490;SDS011;14683;50.038;8.078;2022-11-15T12:25:15;15.40;;;12.70;;
23490;SDS011;14683;50.038;8.078;2022-11-15T12:27:45;12.93;;;9.13;;
23490;SDS011;14683;50.038;8.078;2022-11-15T12:30:16;9.60;;;8.05;;
23490;SDS011;14683;50.038;8.078;2022-11-15T12:33:00;15.15;;;10.85;;
23490;SDS011;14683;50.038;8.078;2022-11-15T12:38:00;10.07;;;6.53;;
23490;SDS011;14683;50.038;8.078;2022-11-15T12:58:47;10.30;;;7.45;;
23490;SDS011;14683;50.038;8.078;2022-11-15T13:12:47;20.98;;;16.05;;
23490;SDS011;14683;50.038;8.078;2022-11-15T13:22:40;7.75;;;6.70;;
23490;SDS011;14683;50.038;8.078;2022-11-15T13:28:10;10.05;;;6.13;;
23490;SDS011;14683;50.038;8.078;2022-11-15T13:33:25;7.57;;;5.90;;
23490;SDS011;14683;50.038;8.078;2022-11-15T13:35:56;7.50;;;6.07;;
23490;SDS011;14683;50.038;8.078;2022-11-15T13:40:50;10.02;;;6.18;;
23490;SDS011;14683;50.038;8.078;2022-11-15T13:46:03;8.88;;;6.05;;
23490;SDS011;14683;50.038;8.078;2022-11-15T13:48:30;8.82;;;7.00;;
23490;SDS011;14683;50.038;8.078;2022-11-15T13:50:57;9.10;;;6.97;;
23490;SDS011;14683;50.038;8.078;2022-11-15T13:53:23;7.85;;;6.18;;
23490;SDS011;14683;50.038;8.078;2022-11-15T13:55:50;8.88;;;6.50;;
23490;SDS011;14683;50.038;8.078;2022-11-15T13:58:16;11.25;;;6.55;;
23490;SDS011;14683;50.038;8.078;2022-11-15T14:00:43;9.35;;;6.43;;
23490;SDS011;14683;50.038;8.078;2022-11-15T14:05:44;10.32;;;6.45;;
23490;SDS011;14683;50.038;8.078;2022-11-15T14:08:24;10.27;;;6.75;;
23490;SDS011;14683;50.038;8.078;2022-11-15T14:11:05;9.73;;;6.95;;
23490;SDS011;14683;50.038;8.078;2022-11-15T14:13:36;10.48;;;5.97;;
23490;SDS011;14683;50.038;8.078;2022-11-15T14:18:48;8.55;;;6.20;;
23490;SDS011;14683;50.038;8.078;2022-11-15T14:21:16;9.70;;;6.45;;
23490;SDS011;14683;50.038;8.078;2022-11-15T14:23:43;9.23;;;6.55;;
23490;SDS011;14683;50.038;8.078;2022-11-15T14:28:54;7.78;;;5.93;;
23490;SDS011;14683;50.038;8.078;2022-11-15T14:31:20;11.65;;;6.45;;
23490;SDS011;14683;50.038;8.078;2022-11-15T14:36:13;8.48;;;6.28;;
23490;SDS011;14683;50.038;8.078;2022-11-15T14:38:40;9.68;;;6.47;;
23490;SDS011;14683;50.038;8.078;2022-11-15T14:41:18;9.23;;;5.82;;
23490;SDS011;14683;50.038;8.078;2022-11-15T14:43:49;7.93;;;5.90;;
23490;SDS011;14683;50.038;8.078;2022-11-15T14:46:16;8.05;;;6.30;;
23490;SDS011;14683;50.038;8.078;2022-11-15T14:48:42;15.15;;;6.75;;
23490;SDS011;14683;50.038;8.078;2022-11-15T14:51:12;7.90;;;6.18;;
23490;SDS011;14683;50.038;8.078;2022-11-15T14:53:39;8.02;;;5.70;;
23490;SDS011;14683;50.038;8.078;2022-11-15T14:56:06;15.57;;;6.97;;
23490;SDS011;14683;50.038;8.078;2022-11-15T14:58:33;10.25;;;6.88;;
23490;SDS011;14683;50.038;8.078;2022-11-15T15:00:59;9.10;;;6.47;;
23490;SDS011;14683;50.038;8.078;2022-11-15T15:03:25;10.50;;;6.43;;
23490;SDS011;14683;50.038;8.078;2022-11-15T15:05:51;9.90;;;6.38;;
23490;SDS011;14683;50.038;8.078;2022-11-15T15:08:17;9.82;;;6.43;;
23490;SDS011;14683;50.038;8.078;2022-11-15T15:10:43;10.85;;;6.53;;
23490;SDS011;14683;50.038;8.078;2022-11-15T15:13:20;9.77;;;6.35;;
23490;SDS011;14683;50.038;8.078;2022-11-15T15:15:48;7.85;;;5.97;;
23490;SDS011;14683;50.038;8.078;2022-11-15T15:18:15;10.23;;;5.75;;
23490;SDS011;14683;50.038;8.078;2022-11-15T15:20:43;9.00;;;5.78;;
23490;SDS011;14683;50.038;8.078;2022-11-15T15:23:15;8.57;;;6.07;;
23490;SDS011;14683;50.038;8.078;2022-11-15T15:25:42;10.45;;;6.65;;
23490;SDS011;14683;50.038;8.078;2022-11-15T15:28:09;10.68;;;6.00;;
23490;SDS011;14683;50.038;8.078;2022-11-15T15:30:35;12.38;;;7.15;;
23490;SDS011;14683;50.038;8.078;2022-11-15T15:33:01;11.35;;;7.38;;
23490;SDS011;14683;50.038;8.078;2022-11-15T15:35:29;8.93;;;6.00;;
23490;SDS011;14683;50.038;8.078;2022-11-15T15:37:56;10.65;;;5.43;;
23490;SDS011;14683;50.038;8.078;2022-11-15T15:40:23;7.13;;;5.38;;
23490;SDS011;14683;50.038;8.078;2022-11-15T15:42:49;9.18;;;5.38;;
23490;SDS011;14683;50.038;8.078;2022-11-15T15:47:42;9.90;;;6.00;;
23490;SDS011;14683;50.038;8.078;2022-11-15T15:50:17;13.13;;;7.10;;
23490;SDS011;14683;50.038;8.078;2022-11-15T15:52:45;18.58;;;10.48;;
23490;SDS011;14683;50.038;8.078;2022-11-15T15:55:11;9.98;;;7.40;;
23490;SDS011;14683;50.038;8.078;2022-11-15T15:57:37;20.30;;;11.38;;
23490;SDS011;14683;50.038;8.078;2022-11-15T16:00:04;15.57;;;10.18;;
23490;SDS011;14683;50.038;8.078;2022-11-15T16:02:38;19.65;;;11.48;;
23490;SDS011;14683;50.038;8.078;2022-11-15T16:05:04;12.43;;;8.48;;
23490;SDS011;14683;50.038;8.078;2022-11-15T16:07:31;19.38;;;11.93;;
23490;SDS011;14683;50.038;8.078;2022-11-15T16:09:57;30.23;;;16.30;;
23490;SDS011;14683;50.038;8.078;2022-11-15T16:12:30;59.25;;;27.50;;
23490;SDS011;14683;50.038;8.078;2022-11-15T16:14:57;19.13;;;12.00;;
23490;SDS011;14683;50.038;8.078;2022-11-15T16:17:24;17.30;;;9.35;;
23490;SDS011;14683;50.038;8.078;2022-11-15T16:19:52;18.08;;;9.38;;
23490;SDS011;14683;50.038;8.078;2022-11-15T16:22:18;13.32;;;8.35;;
23490;SDS011;14683;50.038;8.078;2022-11-15T16:24:44;57.58;;;26.52;;
23490;SDS011;14683;50.038;8.078;2022-11-15T16:27:14;34.53;;;18.00;;
23490;SDS011;14683;50.038;8.078;2022-11-15T16:29:41;31.70;;;14.80;;
23490;SDS011;14683;50.038;8.078;2022-11-15T16:32:07;33.35;;;17.30;;
23490;SDS011;14683;50.038;8.078;2022-11-15T16:34:33;34.70;;;17.70;;
23490;SDS011;14683;50.038;8.078;2022-11-15T16:37:00;21.75;;;10.93;;
23490;SDS011;14683;50.038;8.078;2022-11-15T16:39:26;15.18;;;8.00;;
23490;SDS011;14683;50.038;8.078;2022-11-15T16:41:53;10.45;;;7.57;;
23490;SDS011;14683;50.038;8.078;2022-11-15T16:44:19;9.60;;;6.68;;
23490;SDS011;14683;50.038;8.078;2022-11-15T16:46:45;19.45;;;12.13;;
23490;SDS011;14683;50.038;8.078;2022-11-15T16:49:17;11.93;;;8.43;;
23490;SDS011;14683;50.038;8.078;2022-11-15T16:51:47;15.02;;;10.50;;
23490;SDS011;14683;50.038;8.078;2022-11-15T16:54:14;11.35;;;7.85;;
23490;SDS011;14683;50.038;8.078;2022-11-15T16:56:41;11.85;;;6.10;;
23490;SDS011;14683;50.038;8.078;2022-11-15T17:01:34;7.53;;;4.80;;
23490;SDS011;14683;50.038;8.078;2022-11-15T17:04:03;11.77;;;6.38;;
23490;SDS011;14683;50.038;8.078;2022-11-15T17:06:37;14.60;;;8.63;;
23490;SDS011;14683;50.038;8.078;2022-11-15T17:09:05;15.05;;;10.88;;
23490;SDS011;14683;50.038;8.078;2022-11-15T17:11:33;16.75;;;9.80;;
23490;SDS011;14683;50.038;8.078;2022-11-15T17:13:59;12.18;;;7.97;;
23490;SDS011;14683;50.038;8.078;2022-11-15T17:16:25;10.98;;;7.32;;
23490;SDS011;14683;50.038;8.078;2022-11-15T17:18:51;12.52;;;6.38;;
23490;SDS011;14683;50.038;8.078;2022-11-15T17:21:20;13.82;;;8.10;;
23490;SDS011;14683;50.038;8.078;2022-11-15T17:23:47;11.95;;;6.90;;
23490;SDS011;14683;50.038;8.078;2022-11-15T17:26:13;13.93;;;8.00;;
23490;SDS011;14683;50.038;8.078;2022-11-15T17:28:40;10.77;;;7.53;;
23490;SDS011;14683;50.038;8.078;2022-11-15T17:33:33;7.72;;;6.00;;
23490;SDS011;14683;50.038;8.078;2022-11-15T17:36:00;11.20;;;6.82;;
23490;SDS011;14683;50.038;8.078;2022-11-15T17:38:27;11.30;;;6.63;;
23490;SDS011;14683;50.038;8.078;2022-11-15T17:41:04;12.18;;;7.68;;
23490;SDS011;14683;50.038;8.078;2022-11-15T17:43:35;9.32;;;6.72;;
23490;SDS011;14683;50.038;8.078;2022-11-15T17:46:12;14.75;;;10.13;;
23490;SDS011;14683;50.038;8.078;2022-11-15T17:48:39;12.18;;;7.50;;
23490;SDS011;14683;50.038;8.078;2022-11-15T17:51:06;12.30;;;8.48;;
23490;SDS011;14683;50.038;8.078;2022-11-15T17:53:33;13.93;;;8.65;;
23490;SDS011;14683;50.038;8.078;2022-11-15T17:56:06;11.80;;;7.95;;
23490;SDS011;14683;50.038;8.078;2022-11-15T17:58:34;10.35;;;7.05;;
23490;SDS011;14683;50.038;8.078;2022-11-15T18:03:32;12.98;;;7.68;;
23490;SDS011;14683;50.038;8.078;2022-11-15T18:05:58;13.15;;;6.90;;
23490;SDS011;14683;50.038;8.078;2022-11-15T18:08:24;10.38;;;6.35;;
23490;SDS011;14683;50.038;8.078;2022-11-15T18:10:59;11.32;;;6.50;;
23490;SDS011;14683;50.038;8.078;2022-11-15T18:13:29;9.23;;;5.38;;
23490;SDS011;14683;50.038;8.078;2022-11-15T18:15:56;8.25;;;5.18;;
23490;SDS011;14683;50.038;8.078;2022-11-15T18:18:27;8.32;;;5.45;;
23490;SDS011;14683;50.038;8.078;2022-11-15T18:21:08;12.43;;;5.38;;
23490;SDS011;14683;50.038;8.078;2022-11-15T18:23:38;20.60;;;12.13;;
23490;SDS011;14683;50.038;8.078;2022-11-15T18:26:06;22.70;;;12.77;;
23490;SDS011;14683;50.038;8.078;2022-11-15T18:28:36;12.40;;;8.02;;
23490;SDS011;14683;50.038;8.078;2022-11-15T18:31:05;7.43;;;5.63;;
23490;SDS011;14683;50.038;8.078;2022-11-15T18:33:43;15.02;;;8.45;;
23490;SDS011;14683;50.038;8.078;2022-11-15T18:36:13;12.90;;;8.05;;
23490;SDS011;14683;50.038;8.078;2022-11-15T18:38:44;26.05;;;12.85;;
23490;SDS011;14683;50.038;8.078;2022-11-15T18:41:14;17.50;;;10.20;;
23490;SDS011;14683;50.038;8.078;2022-11-15T18:43:44;12.48;;;8.70;;
23490;SDS011;14683;50.038;8.078;2022-11-15T18:46:11;16.75;;;9.10;;
23490;SDS011;14683;50.038;8.078;2022-11-15T18:48:39;18.17;;;9.40;;
23490;SDS011;14683;50.038;8.078;2022-11-15T18:51:06;19.33;;;10.85;;
23490;SDS011;14683;50.038;8.078;2022-11-15T18:53:36;26.85;;;14.77;;
23490;SDS011;14683;50.038;8.078;2022-11-15T18:56:07;20.48;;;9.50;;
23490;SDS011;14683;50.038;8.078;2022-11-15T18:58:35;32.80;;;18.17;;
23490;SDS011;14683;50.038;8.078;2022-11-15T19:01:03;17.63;;;10.45;;
23490;SDS011;14683;50.038;8.078;2022-11-15T19:06:19;41.50;;;22.75;;
23490;SDS011;14683;50.038;8.078;2022-11-15T19:08:47;16.20;;;7.15;;
23490;SDS011;14683;50.038;8.078;2022-11-15T19:11:18;9.43;;;6.32;;
23490;SDS011;14683;50.038;8.078;2022-11-15T19:13:46;4.65;;;3.65;;
23490;SDS011;14683;50.038;8.078;2022-11-15T19:16:13;6.78;;;4.72;;
23490;SDS011;14683;50.038;8.078;2022-11-15T19:18:41;9.10;;;6.70;;
23490;SDS011;14683;50.038;8.078;2022-11-15T19:21:08;11.15;;;6.93;;
23490;SDS011;14683;50.038;8.078;2022-11-15T19:23:36;8.13;;;4.70;;
23490;SDS011;14683;50.038;8.078;2022-11-15T19:26:04;7.75;;;4.95;;
23490;SDS011;14683;50.038;8.078;2022-11-15T19:28:31;9.65;;;6.05;;
23490;SDS011;14683;50.038;8.078;2022-11-15T19:33:32;20.60;;;11.93;;
23490;SDS011;14683;50.038;8.078;2022-11-15T19:36:00;16.48;;;7.40;;
23490;SDS011;14683;50.038;8.078;2022-11-15T19:38:30;14.23;;;8.30;;
23490;SDS011;14683;50.038;8.078;2022-11-15T19:40:57;14.27;;;7.15;;
23490;SDS011;14683;50.038;8.078;2022-11-15T19:43:24;6.68;;;4.40;;
23490;SDS011;14683;50.038;8.078;2022-11-15T19:45:51;5.35;;;4.05;;
23490;SDS011;14683;50.038;8.078;2022-11-15T19:48:18;5.97;;;4.78;;
23490;SDS011;14683;50.038;8.078;2022-11-15T19:50:44;8.20;;;4.25;;
23490;SDS011;14683;50.038;8.078;2022-11-15T19:53:10;5.25;;;4.50;;
23490;SDS011;14683;50.038;8.078;2022-11-15T19:55:36;6.88;;;4.97;;
23490;SDS011;14683;50.038;8.078;2022-11-15T19:58:02;6.10;;;4.55;;
23490;SDS011;14683;50.038;8.078;2022-11-15T20:00:28;9.30;;;5.15;;
23490;SDS011;14683;50.038;8.078;2022-11-15T20:02:54;6.70;;;4.95;;
23490;SDS011;14683;50.038;8.078;2022-11-15T20:05:20;6.28;;;4.70;;
23490;SDS011;14683;50.038;8.078;2022-11-15T20:07:47;6.45;;;4.40;;
23490;SDS011;14683;50.038;8.078;2022-11-15T20:10:13;7.40;;;4.30;;
23490;SDS011;14683;50.038;8.078;2022-11-15T20:12:39;7.97;;;5.15;;
23490;SDS011;14683;50.038;8.078;2022-11-15T20:17:32;10.40;;;5.93;;
23490;SDS011;14683;50.038;8.078;2022-11-15T20:19:58;11.77;;;5.20;;
23490;SDS011;14683;50.038;8.078;2022-11-15T20:22:25;9.95;;;5.28;;
23490;SDS011;14683;50.038;8.078;2022-11-15T20:27:18;4.93;;;4.43;;
23490;SDS011;14683;50.038;8.078;2022-11-15T20:29:44;8.98;;;5.30;;
23490;SDS011;14683;50.038;8.078;2022-11-15T20:34:36;8.25;;;5.35;;
23490;SDS011;14683;50.038;8.078;2022-11-15T20:39:28;6.72;;;4.85;;
23490;SDS011;14683;50.038;8.078;2022-11-15T20:41:54;6.53;;;4.65;;
23490;SDS011;14683;50.038;8.078;2022-11-15T20:44:20;8.10;;;5.45;;
23490;SDS011;14683;50.038;8.078;2022-11-15T20:46:46;6.13;;;4.63;;
23490;SDS011;14683;50.038;8.078;2022-11-15T20:49:12;8.20;;;4.72;;
23490;SDS011;14683;50.038;8.078;2022-11-15T20:51:38;8.38;;;5.22;;
23490;SDS011;14683;50.038;8.078;2022-11-15T20:54:04;9.75;;;6.00;;
23490;SDS011;14683;50.038;8.078;2022-11-15T20:56:30;8.35;;;6.32;;
23490;SDS011;14683;50.038;8.078;2022-11-15T20:58:56;7.70;;;5.45;;
23490;SDS011;14683;50.038;8.078;2022-11-15T21:01:23;6.03;;;4.55;;
23490;SDS011;14683;50.038;8.078;2022-11-15T21:03:50;9.43;;;5.40;;
23490;SDS011;14683;50.038;8.078;2022-11-15T21:06:17;9.85;;;5.07;;
23490;SDS011;14683;50.038;8.078;2022-11-15T21:08:46;8.18;;;5.60;;
23490;SDS011;14683;50.038;8.078;2022-11-15T21:11:33;7.20;;;5.55;;
23490;SDS011;14683;50.038;8.078;2022-11-15T21:14:19;6.38;;;5.25;;
23490;SDS011;14683;50.038;8.078;2022-11-15T21:19:11;5.88;;;4.90;;
23490;SDS011;14683;50.038;8.078;2022-11-15T21:21:37;6.55;;;4.60;;
23490;SDS011;14683;50.038;8.078;2022-11-15T21:26:30;7.10;;;4.60;;
23490;SDS011;14683;50.038;8.078;2022-11-15T21:28:57;11.88;;;4.65;;
23490;SDS011;14683;50.038;8.078;2022-11-15T21:31:23;7.90;;;4.95;;
23490;SDS011;14683;50.038;8.078;2022-11-15T21:33:49;6.45;;;4.78;;
23490;SDS011;14683;50.038;8.078;2022-11-15T21:36:15;8.60;;;4.88;;
23490;SDS011;14683;50.038;8.078;2022-11-15T21:38:41;8.23;;;5.60;;
23490;SDS011;14683;50.038;8.078;2022-11-15T21:41:07;8.15;;;5.93;;
23490;SDS011;14683;50.038;8.078;2022-11-15T21:43:33;7.53;;;4.25;;
